sensor_id;sensor_type;location;lat;lon;timestamp;temperature;humidity
8537;DHT22;4306;50.210;10.628;2024-01-06T00:02:21;1.80;99.90
8537;DHT22;4306;50.210;10.628;2024-01-06T00:04:48;1.80;99.90
8537;DHT22;4306;50.210;10.628;2024-01-06T00:07:15;1.80;99.90
8537;DHT22;4306;50.210;10.628;2024-01-06T00:09:42;1.90;99.90
8537;DHT22;4306;50.210;10.628;2024-01-06T00:12:09;1.90;99.90
8537;DHT22;4306;50.210;10.628;2024-01-06T00:14:36;2.00;99.90
8537;DHT22;4306;50.210;10.628;2024-01-06T00:17:05;2.10;99.90
8537;DHT22;4306;50.210;10.628;2024-01-06T00:19:32;2.10;99.90
8537;DHT22;4306;50.210;10.628;2024-01-06T00:21:59;2.00;99.90
8537;DHT22;4306;50.210;10.628;2024-01-06T00:24:26;2.00;99.90
8537;DHT22;4306;50.210;10.628;2024-01-06T00:26:53;1.80;99.90
8537;DHT22;4306;50.210;10.628;2024-01-06T00:29:21;1.50;99.90
8537;DHT22;4306;50.210;10.628;2024-01-06T00:31:48;1.50;99.90
8537;DHT22;4306;50.210;10.628;2024-01-06T00:34:16;1.40;99.90
8537;DHT22;4306;50.210;10.628;2024-01-06T00:36:43;1.70;99.90
8537;DHT22;4306;50.210;10.628;2024-01-06T00:39:10;1.70;99.90
8537;DHT22;4306;50.210;10.628;2024-01-06T00:41:37;1.70;99.90
8537;DHT22;4306;50.210;10.628;2024-01-06T00:44:04;1.60;99.90
8537;DHT22;4306;50.210;10.628;2024-01-06T00:46:31;1.50;99.90
8537;DHT22;4306;50.210;10.628;2024-01-06T00:48:58;1.50;99.90
8537;DHT22;4306;50.210;10.628;2024-01-06T00:51:27;1.60;99.90
8537;DHT22;4306;50.210;10.628;2024-01-06T00:53:54;1.70;99.90
8537;DHT22;4306;50.210;10.628;2024-01-06T00:56:22;1.60;99.90
8537;DHT22;4306;50.210;10.628;2024-01-06T00:58:49;1.60;99.90
8537;DHT22;4306;50.210;10.628;2024-01-06T01:01:16;1.60;99.90
8537;DHT22;4306;50.210;10.628;2024-01-06T01:03:43;1.60;99.90
8537;DHT22;4306;50.210;10.628;2024-01-06T01:06:10;1.30;99.90
8537;DHT22;4306;50.210;10.628;2024-01-06T01:08:38;1.20;99.90
8537;DHT22;4306;50.210;10.628;2024-01-06T01:11:05;1.30;99.90
8537;DHT22;4306;50.210;10.628;2024-01-06T01:13:33;1.30;99.90
8537;DHT22;4306;50.210;10.628;2024-01-06T01:16:00;1.20;99.90
8537;DHT22;4306;50.210;10.628;2024-01-06T01:18:28;1.10;99.90
8537;DHT22;4306;50.210;10.628;2024-01-06T01:20:55;1.10;99.90
8537;DHT22;4306;50.210;10.628;2024-01-06T01:23:22;1.10;99.90
8537;DHT22;4306;50.210;10.628;2024-01-06T01:25:51;1.20;99.90
8537;DHT22;4306;50.210;10.628;2024-01-06T01:28:18;1.20;99.90
8537;DHT22;4306;50.210;10.628;2024-01-06T01:30:45;1.30;99.90
8537;DHT22;4306;50.210;10.628;2024-01-06T01:33:12;1.20;99.90
8537;DHT22;4306;50.210;10.628;2024-01-06T01:35:39;1.20;99.90
8537;DHT22;4306;50.210;10.628;2024-01-06T01:38:07;1.00;99.90
8537;DHT22;4306;50.210;10.628;2024-01-06T01:40:34;1.00;99.90
8537;DHT22;4306;50.210;10.628;2024-01-06T01:43:02;1.10;99.90
8537;DHT22;4306;50.210;10.628;2024-01-06T01:45:29;1.10;99.90
8537;DHT22;4306;50.210;10.628;2024-01-06T01:47:57;1.20;99.90
8537;DHT22;4306;50.210;10.628;2024-01-06T01:50:24;1.20;99.90
8537;DHT22;4306;50.210;10.628;2024-01-06T01:52:53;1.30;99.90
8537;DHT22;4306;50.210;10.628;2024-01-06T01:55:21;1.10;99.90
8537;DHT22;4306;50.210;10.628;2024-01-06T01:57:48;1.00;99.90
8537;DHT22;4306;50.210;10.628;2024-01-06T02:00:17;0.90;99.90
8537;DHT22;4306;50.210;10.628;2024-01-06T02:02:44;0.90;99.90
8537;DHT22;4306;50.210;10.628;2024-01-06T02:05:11;1.00;99.90
8537;DHT22;4306;50.210;10.628;2024-01-06T02:07:38;1.00;99.90
8537;DHT22;4306;50.210;10.628;2024-01-06T02:10:06;1.00;99.90
8537;DHT22;4306;50.210;10.628;2024-01-06T02:12:34;0.90;99.90
8537;DHT22;4306;50.210;10.628;2024-01-06T02:15:01;0.90;99.90
8537;DHT22;4306;50.210;10.628;2024-01-06T02:17:29;0.90;99.90
8537;DHT22;4306;50.210;10.628;2024-01-06T02:19:57;0.90;99.90
8537;DHT22;4306;50.210;10.628;2024-01-06T02:22:25;1.00;99.90
8537;DHT22;4306;50.210;10.628;2024-01-06T02:24:52;1.00;99.90
8537;DHT22;4306;50.210;10.628;2024-01-06T02:27:20;1.00;99.90
8537;DHT22;4306;50.210;10.628;2024-01-06T02:29:47;1.20;99.90
8537;DHT22;4306;50.210;10.628;2024-01-06T02:32:14;1.00;99.90
8537;DHT22;4306;50.210;10.628;2024-01-06T02:34:41;1.00;99.90
8537;DHT22;4306;50.210;10.628;2024-01-06T02:37:08;1.00;99.90
8537;DHT22;4306;50.210;10.628;2024-01-06T02:39:36;1.00;99.90
8537;DHT22;4306;50.210;10.628;2024-01-06T02:42:04;1.00;99.90
8537;DHT22;4306;50.210;10.628;2024-01-06T02:44:31;1.00;99.90
8537;DHT22;4306;50.210;10.628;2024-01-06T02:46:58;0.90;99.90
8537;DHT22;4306;50.210;10.628;2024-01-06T02:49:25;0.70;99.90
8537;DHT22;4306;50.210;10.628;2024-01-06T02:51:52;0.60;99.90
8537;DHT22;4306;50.210;10.628;2024-01-06T02:54:19;0.50;99.90
8537;DHT22;4306;50.210;10.628;2024-01-06T02:56:48;0.60;99.90
8537;DHT22;4306;50.210;10.628;2024-01-06T02:59:15;0.70;99.90
8537;DHT22;4306;50.210;10.628;2024-01-06T03:01:42;0.80;99.90
8537;DHT22;4306;50.210;10.628;2024-01-06T03:04:09;0.80;99.90
8537;DHT22;4306;50.210;10.628;2024-01-06T03:06:36;0.80;99.90
8537;DHT22;4306;50.210;10.628;2024-01-06T03:09:03;0.80;99.90
8537;DHT22;4306;50.210;10.628;2024-01-06T03:11:30;0.90;99.90
8537;DHT22;4306;50.210;10.628;2024-01-06T03:13:58;0.70;99.90
8537;DHT22;4306;50.210;10.628;2024-01-06T03:16:25;0.70;99.90
8537;DHT22;4306;50.210;10.628;2024-01-06T03:18:52;0.70;99.90
8537;DHT22;4306;50.210;10.628;2024-01-06T03:21:19;0.70;99.90
8537;DHT22;4306;50.210;10.628;2024-01-06T03:23:47;0.60;99.90
8537;DHT22;4306;50.210;10.628;2024-01-06T03:26:14;0.70;99.90
8537;DHT22;4306;50.210;10.628;2024-01-06T03:28:41;0.70;99.90
8537;DHT22;4306;50.210;10.628;2024-01-06T03:31:10;0.70;99.90
8537;DHT22;4306;50.210;10.628;2024-01-06T03:33:37;0.60;99.90
8537;DHT22;4306;50.210;10.628;2024-01-06T03:36:05;0.60;99.90
8537;DHT22;4306;50.210;10.628;2024-01-06T03:38:32;0.60;99.90
8537;DHT22;4306;50.210;10.628;2024-01-06T03:41:00;0.60;99.90
8537;DHT22;4306;50.210;10.628;2024-01-06T03:43:27;0.60;99.90
8537;DHT22;4306;50.210;10.628;2024-01-06T03:45:54;0.70;99.90
8537;DHT22;4306;50.210;10.628;2024-01-06T03:48:23;0.70;99.90
8537;DHT22;4306;50.210;10.628;2024-01-06T03:50:50;0.80;99.90
8537;DHT22;4306;50.210;10.628;2024-01-06T03:53:17;0.80;99.90
8537;DHT22;4306;50.210;10.628;2024-01-06T03:55:44;0.80;99.90
8537;DHT22;4306;50.210;10.628;2024-01-06T03:58:11;0.60;99.90
8537;DHT22;4306;50.210;10.628;2024-01-06T04:00:38;0.70;99.90
8537;DHT22;4306;50.210;10.628;2024-01-06T04:03:05;0.60;99.90
8537;DHT22;4306;50.210;10.628;2024-01-06T04:05:34;0.70;99.90
8537;DHT22;4306;50.210;10.628;2024-01-06T04:08:01;0.70;99.90
8537;DHT22;4306;50.210;10.628;2024-01-06T04:10:28;0.70;99.90
8537;DHT22;4306;50.210;10.628;2024-01-06T04:12:55;0.80;99.90
8537;DHT22;4306;50.210;10.628;2024-01-06T04:15:22;0.90;99.90
8537;DHT22;4306;50.210;10.628;2024-01-06T04:17:49;0.90;99.90
8537;DHT22;4306;50.210;10.628;2024-01-06T04:20:18;0.90;99.90
8537;DHT22;4306;50.210;10.628;2024-01-06T04:22:46;1.00;99.90
8537;DHT22;4306;50.210;10.628;2024-01-06T04:25:13;1.00;99.90
8537;DHT22;4306;50.210;10.628;2024-01-06T04:27:40;1.00;99.90
8537;DHT22;4306;50.210;10.628;2024-01-06T04:30:08;0.90;99.90
8537;DHT22;4306;50.210;10.628;2024-01-06T04:32:36;0.90;99.90
8537;DHT22;4306;50.210;10.628;2024-01-06T04:35:04;0.80;99.90
8537;DHT22;4306;50.210;10.628;2024-01-06T04:37:31;0.90;99.90
8537;DHT22;4306;50.210;10.628;2024-01-06T04:40:00;0.90;99.90
8537;DHT22;4306;50.210;10.628;2024-01-06T04:42:29;0.90;99.90
8537;DHT22;4306;50.210;10.628;2024-01-06T04:44:56;0.80;99.90
8537;DHT22;4306;50.210;10.628;2024-01-06T04:47:23;0.70;99.90
8537;DHT22;4306;50.210;10.628;2024-01-06T04:49:50;0.50;99.90
8537;DHT22;4306;50.210;10.628;2024-01-06T04:52:17;0.50;99.90
8537;DHT22;4306;50.210;10.628;2024-01-06T04:54:44;0.60;99.90
8537;DHT22;4306;50.210;10.628;2024-01-06T04:57:12;0.60;99.90
8537;DHT22;4306;50.210;10.628;2024-01-06T04:59:40;0.70;99.90
8537;DHT22;4306;50.210;10.628;2024-01-06T05:02:07;0.80;99.90
8537;DHT22;4306;50.210;10.628;2024-01-06T05:04:34;0.80;99.90
8537;DHT22;4306;50.210;10.628;2024-01-06T05:07:01;0.80;99.90
8537;DHT22;4306;50.210;10.628;2024-01-06T05:09:28;0.90;99.90
8537;DHT22;4306;50.210;10.628;2024-01-06T05:11:55;0.90;99.90
8537;DHT22;4306;50.210;10.628;2024-01-06T05:14:24;0.90;99.90
8537;DHT22;4306;50.210;10.628;2024-01-06T05:16:50;0.90;99.90
8537;DHT22;4306;50.210;10.628;2024-01-06T05:19:17;0.90;99.90
8537;DHT22;4306;50.210;10.628;2024-01-06T05:21:46;0.80;99.90
8537;DHT22;4306;50.210;10.628;2024-01-06T05:24:14;0.70;99.90
8537;DHT22;4306;50.210;10.628;2024-01-06T05:26:41;0.50;99.90
8537;DHT22;4306;50.210;10.628;2024-01-06T05:29:08;0.40;99.90
8537;DHT22;4306;50.210;10.628;2024-01-06T05:31:36;0.50;99.90
8537;DHT22;4306;50.210;10.628;2024-01-06T05:34:03;0.50;99.90
8537;DHT22;4306;50.210;10.628;2024-01-06T05:36:30;0.50;99.90
8537;DHT22;4306;50.210;10.628;2024-01-06T05:38:57;0.60;99.90
8537;DHT22;4306;50.210;10.628;2024-01-06T05:41:25;0.60;99.90
8537;DHT22;4306;50.210;10.628;2024-01-06T05:43:52;0.80;99.90
8537;DHT22;4306;50.210;10.628;2024-01-06T05:46:23;0.70;99.90
8537;DHT22;4306;50.210;10.628;2024-01-06T05:48:51;0.60;99.90
8537;DHT22;4306;50.210;10.628;2024-01-06T05:51:18;0.50;99.90
8537;DHT22;4306;50.210;10.628;2024-01-06T05:53:45;0.50;99.90
8537;DHT22;4306;50.210;10.628;2024-01-06T05:56:22;0.50;99.90
8537;DHT22;4306;50.210;10.628;2024-01-06T05:58:50;0.60;99.90
8537;DHT22;4306;50.210;10.628;2024-01-06T06:01:17;0.70;99.90
8537;DHT22;4306;50.210;10.628;2024-01-06T06:03:44;0.70;99.90
8537;DHT22;4306;50.210;10.628;2024-01-06T06:06:12;0.80;99.90
8537;DHT22;4306;50.210;10.628;2024-01-06T06:08:40;0.80;99.90
8537;DHT22;4306;50.210;10.628;2024-01-06T06:11:08;0.80;99.90
8537;DHT22;4306;50.210;10.628;2024-01-06T06:13:37;0.80;99.90
8537;DHT22;4306;50.210;10.628;2024-01-06T06:16:06;0.80;99.90
8537;DHT22;4306;50.210;10.628;2024-01-06T06:18:34;0.70;99.90
8537;DHT22;4306;50.210;10.628;2024-01-06T06:21:01;0.70;99.90
8537;DHT22;4306;50.210;10.628;2024-01-06T06:23:30;0.70;99.90
8537;DHT22;4306;50.210;10.628;2024-01-06T06:25:57;0.90;99.90
8537;DHT22;4306;50.210;10.628;2024-01-06T06:28:25;0.90;99.90
8537;DHT22;4306;50.210;10.628;2024-01-06T06:30:52;0.90;99.90
8537;DHT22;4306;50.210;10.628;2024-01-06T06:33:19;0.90;99.90
8537;DHT22;4306;50.210;10.628;2024-01-06T06:35:46;1.10;99.90
8537;DHT22;4306;50.210;10.628;2024-01-06T06:38:13;1.10;99.90
8537;DHT22;4306;50.210;10.628;2024-01-06T06:40:41;1.10;99.90
8537;DHT22;4306;50.210;10.628;2024-01-06T06:43:08;1.10;99.90
8537;DHT22;4306;50.210;10.628;2024-01-06T06:45:35;1.10;99.90
8537;DHT22;4306;50.210;10.628;2024-01-06T06:48:03;1.00;99.90
8537;DHT22;4306;50.210;10.628;2024-01-06T06:50:30;1.10;99.90
8537;DHT22;4306;50.210;10.628;2024-01-06T06:52:57;1.10;99.90
8537;DHT22;4306;50.210;10.628;2024-01-06T06:55:26;1.20;99.90
8537;DHT22;4306;50.210;10.628;2024-01-06T06:57:55;1.20;99.90
8537;DHT22;4306;50.210;10.628;2024-01-06T07:00:22;1.30;99.90
8537;DHT22;4306;50.210;10.628;2024-01-06T07:02:49;1.30;99.90
8537;DHT22;4306;50.210;10.628;2024-01-06T07:05:16;1.40;99.90
8537;DHT22;4306;50.210;10.628;2024-01-06T07:07:43;1.40;99.90
8537;DHT22;4306;50.210;10.628;2024-01-06T07:10:12;1.40;99.90
8537;DHT22;4306;50.210;10.628;2024-01-06T07:12:39;1.40;99.90
8537;DHT22;4306;50.210;10.628;2024-01-06T07:15:08;1.40;99.90
8537;DHT22;4306;50.210;10.628;2024-01-06T07:17:37;1.50;99.90
8537;DHT22;4306;50.210;10.628;2024-01-06T07:20:05;1.50;99.90
8537;DHT22;4306;50.210;10.628;2024-01-06T07:22:33;1.60;99.90
8537;DHT22;4306;50.210;10.628;2024-01-06T07:25:01;1.60;99.90
8537;DHT22;4306;50.210;10.628;2024-01-06T07:27:28;1.70;99.90
8537;DHT22;4306;50.210;10.628;2024-01-06T07:29:55;1.70;99.90
8537;DHT22;4306;50.210;10.628;2024-01-06T07:32:23;1.70;99.90
8537;DHT22;4306;50.210;10.628;2024-01-06T07:34:50;1.60;99.90
8537;DHT22;4306;50.210;10.628;2024-01-06T07:37:17;1.70;99.90
8537;DHT22;4306;50.210;10.628;2024-01-06T07:39:44;1.60;99.90
8537;DHT22;4306;50.210;10.628;2024-01-06T07:42:11;1.70;99.90
8537;DHT22;4306;50.210;10.628;2024-01-06T07:44:39;1.70;99.90
8537;DHT22;4306;50.210;10.628;2024-01-06T07:47:06;1.80;99.90
8537;DHT22;4306;50.210;10.628;2024-01-06T07:49:34;1.80;99.90
8537;DHT22;4306;50.210;10.628;2024-01-06T07:52:02;1.80;99.90
8537;DHT22;4306;50.210;10.628;2024-01-06T07:54:29;1.90;99.90
8537;DHT22;4306;50.210;10.628;2024-01-06T07:56:56;1.90;99.90
8537;DHT22;4306;50.210;10.628;2024-01-06T07:59:24;2.00;99.90
8537;DHT22;4306;50.210;10.628;2024-01-06T08:01:51;1.90;99.90
8537;DHT22;4306;50.210;10.628;2024-01-06T08:04:18;1.90;99.90
8537;DHT22;4306;50.210;10.628;2024-01-06T08:06:47;1.80;99.90
8537;DHT22;4306;50.210;10.628;2024-01-06T08:09:14;1.90;99.90
8537;DHT22;4306;50.210;10.628;2024-01-06T08:11:41;2.00;99.90
8537;DHT22;4306;50.210;10.628;2024-01-06T08:14:08;2.10;99.90
8537;DHT22;4306;50.210;10.628;2024-01-06T08:16:36;2.10;99.90
8537;DHT22;4306;50.210;10.628;2024-01-06T08:19:03;2.20;99.90
8537;DHT22;4306;50.210;10.628;2024-01-06T08:21:30;2.20;99.90
8537;DHT22;4306;50.210;10.628;2024-01-06T08:23:58;2.20;99.90
8537;DHT22;4306;50.210;10.628;2024-01-06T08:26:26;2.20;99.90
8537;DHT22;4306;50.210;10.628;2024-01-06T08:28:53;2.20;99.90
8537;DHT22;4306;50.210;10.628;2024-01-06T08:31:20;2.40;99.90
8537;DHT22;4306;50.210;10.628;2024-01-06T08:33:48;2.40;99.90
8537;DHT22;4306;50.210;10.628;2024-01-06T08:36:15;2.40;99.90
8537;DHT22;4306;50.210;10.628;2024-01-06T08:38:42;2.30;99.90
8537;DHT22;4306;50.210;10.628;2024-01-06T08:41:11;2.40;99.90
8537;DHT22;4306;50.210;10.628;2024-01-06T08:43:38;2.40;99.90
8537;DHT22;4306;50.210;10.628;2024-01-06T08:46:06;2.50;99.90
8537;DHT22;4306;50.210;10.628;2024-01-06T08:48:33;2.50;99.90
8537;DHT22;4306;50.210;10.628;2024-01-06T08:51:00;2.60;99.90
8537;DHT22;4306;50.210;10.628;2024-01-06T08:53:27;2.70;99.90
8537;DHT22;4306;50.210;10.628;2024-01-06T08:55:54;2.60;99.90
8537;DHT22;4306;50.210;10.628;2024-01-06T08:58:23;2.50;99.90
8537;DHT22;4306;50.210;10.628;2024-01-06T09:00:50;2.50;99.90
8537;DHT22;4306;50.210;10.628;2024-01-06T09:03:18;2.60;99.90
8537;DHT22;4306;50.210;10.628;2024-01-06T09:05:50;2.70;99.90
8537;DHT22;4306;50.210;10.628;2024-01-06T09:08:18;2.80;99.90
8537;DHT22;4306;50.210;10.628;2024-01-06T09:10:45;2.80;99.90
8537;DHT22;4306;50.210;10.628;2024-01-06T09:13:12;2.90;99.90
8537;DHT22;4306;50.210;10.628;2024-01-06T09:15:40;3.00;99.90
8537;DHT22;4306;50.210;10.628;2024-01-06T09:18:08;3.00;99.90
8537;DHT22;4306;50.210;10.628;2024-01-06T09:20:36;3.00;99.90
8537;DHT22;4306;50.210;10.628;2024-01-06T09:23:04;3.00;99.90
8537;DHT22;4306;50.210;10.628;2024-01-06T09:25:31;3.10;99.90
8537;DHT22;4306;50.210;10.628;2024-01-06T09:27:58;3.10;99.90
8537;DHT22;4306;50.210;10.628;2024-01-06T09:30:26;3.20;99.90
8537;DHT22;4306;50.210;10.628;2024-01-06T09:32:54;3.40;99.90
8537;DHT22;4306;50.210;10.628;2024-01-06T09:35:21;3.30;99.90
8537;DHT22;4306;50.210;10.628;2024-01-06T09:37:48;3.40;99.90
8537;DHT22;4306;50.210;10.628;2024-01-06T09:40:21;3.40;99.90
8537;DHT22;4306;50.210;10.628;2024-01-06T09:42:49;3.40;99.90
8537;DHT22;4306;50.210;10.628;2024-01-06T09:45:16;3.40;99.90
8537;DHT22;4306;50.210;10.628;2024-01-06T09:47:48;3.50;99.90
8537;DHT22;4306;50.210;10.628;2024-01-06T09:50:19;3.50;99.90
8537;DHT22;4306;50.210;10.628;2024-01-06T09:52:47;3.50;99.90
8537;DHT22;4306;50.210;10.628;2024-01-06T09:55:23;3.50;99.90
8537;DHT22;4306;50.210;10.628;2024-01-06T09:57:52;3.60;99.90
8537;DHT22;4306;50.210;10.628;2024-01-06T10:00:19;3.60;99.90
8537;DHT22;4306;50.210;10.628;2024-01-06T10:02:47;3.60;99.90
8537;DHT22;4306;50.210;10.628;2024-01-06T10:05:18;3.70;99.90
8537;DHT22;4306;50.210;10.628;2024-01-06T10:07:45;3.80;99.90
8537;DHT22;4306;50.210;10.628;2024-01-06T10:10:13;3.80;99.90
8537;DHT22;4306;50.210;10.628;2024-01-06T10:12:41;3.90;99.90
8537;DHT22;4306;50.210;10.628;2024-01-06T10:15:09;3.90;99.90
8537;DHT22;4306;50.210;10.628;2024-01-06T10:17:37;4.00;99.90
8537;DHT22;4306;50.210;10.628;2024-01-06T10:20:07;4.00;99.90
8537;DHT22;4306;50.210;10.628;2024-01-06T10:22:38;4.10;99.90
8537;DHT22;4306;50.210;10.628;2024-01-06T10:25:09;4.10;99.90
8537;DHT22;4306;50.210;10.628;2024-01-06T10:27:37;4.10;99.90
8537;DHT22;4306;50.210;10.628;2024-01-06T10:30:06;4.10;99.90
8537;DHT22;4306;50.210;10.628;2024-01-06T10:32:36;4.10;99.90
8537;DHT22;4306;50.210;10.628;2024-01-06T10:35:04;4.20;99.90
8537;DHT22;4306;50.210;10.628;2024-01-06T10:37:32;4.10;99.90
8537;DHT22;4306;50.210;10.628;2024-01-06T10:40:08;4.30;99.90
8537;DHT22;4306;50.210;10.628;2024-01-06T10:42:37;4.40;99.90
8537;DHT22;4306;50.210;10.628;2024-01-06T10:45:07;4.50;99.90
8537;DHT22;4306;50.210;10.628;2024-01-06T10:47:35;4.60;99.90
8537;DHT22;4306;50.210;10.628;2024-01-06T10:50:03;4.60;99.90
8537;DHT22;4306;50.210;10.628;2024-01-06T10:52:32;4.70;99.90
8537;DHT22;4306;50.210;10.628;2024-01-06T10:55:00;4.70;99.90
8537;DHT22;4306;50.210;10.628;2024-01-06T10:57:30;4.90;99.90
8537;DHT22;4306;50.210;10.628;2024-01-06T10:59:58;4.70;99.90
8537;DHT22;4306;50.210;10.628;2024-01-06T11:02:27;4.70;99.90
8537;DHT22;4306;50.210;10.628;2024-01-06T11:04:54;4.60;99.90
8537;DHT22;4306;50.210;10.628;2024-01-06T11:07:23;4.70;99.90
8537;DHT22;4306;50.210;10.628;2024-01-06T11:09:56;4.80;99.90
8537;DHT22;4306;50.210;10.628;2024-01-06T11:12:24;4.80;99.90
8537;DHT22;4306;50.210;10.628;2024-01-06T11:14:53;4.90;99.90
8537;DHT22;4306;50.210;10.628;2024-01-06T11:17:51;4.90;99.90
8537;DHT22;4306;50.210;10.628;2024-01-06T11:20:21;5.00;99.90
8537;DHT22;4306;50.210;10.628;2024-01-06T11:22:48;5.00;99.90
8537;DHT22;4306;50.210;10.628;2024-01-06T11:25:17;5.10;99.90
8537;DHT22;4306;50.210;10.628;2024-01-06T11:27:46;4.90;99.90
8537;DHT22;4306;50.210;10.628;2024-01-06T11:30:22;4.90;99.90
8537;DHT22;4306;50.210;10.628;2024-01-06T11:32:51;5.00;99.90
8537;DHT22;4306;50.210;10.628;2024-01-06T11:35:19;4.90;99.90
8537;DHT22;4306;50.210;10.628;2024-01-06T11:37:54;4.90;99.90
8537;DHT22;4306;50.210;10.628;2024-01-06T11:40:24;4.90;99.90
8537;DHT22;4306;50.210;10.628;2024-01-06T11:43:01;4.90;99.90
8537;DHT22;4306;50.210;10.628;2024-01-06T11:45:32;5.00;99.90
8537;DHT22;4306;50.210;10.628;2024-01-06T11:48:00;5.10;99.90
8537;DHT22;4306;50.210;10.628;2024-01-06T11:50:29;5.10;99.90
8537;DHT22;4306;50.210;10.628;2024-01-06T11:52:58;5.20;99.90
8537;DHT22;4306;50.210;10.628;2024-01-06T11:55:26;5.20;99.90
8537;DHT22;4306;50.210;10.628;2024-01-06T11:57:54;5.10;99.90
8537;DHT22;4306;50.210;10.628;2024-01-06T12:00:23;5.10;99.90
8537;DHT22;4306;50.210;10.628;2024-01-06T12:02:55;5.10;99.90
8537;DHT22;4306;50.210;10.628;2024-01-06T12:05:24;5.10;99.90
8537;DHT22;4306;50.210;10.628;2024-01-06T12:07:55;5.20;99.90
8537;DHT22;4306;50.210;10.628;2024-01-06T12:10:24;5.30;99.90
8537;DHT22;4306;50.210;10.628;2024-01-06T12:12:56;5.20;99.90
8537;DHT22;4306;50.210;10.628;2024-01-06T12:15:24;5.30;99.90
8537;DHT22;4306;50.210;10.628;2024-01-06T12:17:53;5.40;99.90
8537;DHT22;4306;50.210;10.628;2024-01-06T12:20:21;5.40;99.90
8537;DHT22;4306;50.210;10.628;2024-01-06T12:22:50;5.50;99.90
8537;DHT22;4306;50.210;10.628;2024-01-06T12:25:18;5.70;99.90
8537;DHT22;4306;50.210;10.628;2024-01-06T12:27:47;5.70;99.90
8537;DHT22;4306;50.210;10.628;2024-01-06T12:30:14;5.60;99.90
8537;DHT22;4306;50.210;10.628;2024-01-06T12:32:45;5.50;99.90
8537;DHT22;4306;50.210;10.628;2024-01-06T12:35:16;5.60;99.90
8537;DHT22;4306;50.210;10.628;2024-01-06T12:37:44;5.70;99.90
8537;DHT22;4306;50.210;10.628;2024-01-06T12:40:12;5.80;99.90
8537;DHT22;4306;50.210;10.628;2024-01-06T12:42:40;5.60;99.90
8537;DHT22;4306;50.210;10.628;2024-01-06T12:45:08;5.60;99.90
8537;DHT22;4306;50.210;10.628;2024-01-06T12:47:36;5.70;99.90
8537;DHT22;4306;50.210;10.628;2024-01-06T12:50:05;5.70;99.90
8537;DHT22;4306;50.210;10.628;2024-01-06T12:52:35;5.80;99.90
8537;DHT22;4306;50.210;10.628;2024-01-06T12:55:05;5.80;99.90
8537;DHT22;4306;50.210;10.628;2024-01-06T12:57:32;5.80;99.90
8537;DHT22;4306;50.210;10.628;2024-01-06T13:00:00;5.80;99.90
8537;DHT22;4306;50.210;10.628;2024-01-06T13:02:27;5.80;99.90
8537;DHT22;4306;50.210;10.628;2024-01-06T13:04:54;5.90;99.90
8537;DHT22;4306;50.210;10.628;2024-01-06T13:07:22;5.90;99.90
8537;DHT22;4306;50.210;10.628;2024-01-06T13:09:50;5.90;99.90
8537;DHT22;4306;50.210;10.628;2024-01-06T13:12:17;5.70;99.90
8537;DHT22;4306;50.210;10.628;2024-01-06T13:14:45;5.60;99.90
8537;DHT22;4306;50.210;10.628;2024-01-06T13:17:13;5.50;99.90
8537;DHT22;4306;50.210;10.628;2024-01-06T13:19:40;5.40;99.90
8537;DHT22;4306;50.210;10.628;2024-01-06T13:22:07;5.50;99.90
8537;DHT22;4306;50.210;10.628;2024-01-06T13:24:34;5.50;99.90
8537;DHT22;4306;50.210;10.628;2024-01-06T13:27:03;5.30;99.90
8537;DHT22;4306;50.210;10.628;2024-01-06T13:29:30;5.40;99.90
8537;DHT22;4306;50.210;10.628;2024-01-06T13:31:58;5.40;99.90
8537;DHT22;4306;50.210;10.628;2024-01-06T13:34:25;5.30;99.90
8537;DHT22;4306;50.210;10.628;2024-01-06T13:36:55;5.20;99.90
8537;DHT22;4306;50.210;10.628;2024-01-06T13:39:23;5.30;99.90
8537;DHT22;4306;50.210;10.628;2024-01-06T13:41:50;5.10;99.90
8537;DHT22;4306;50.210;10.628;2024-01-06T13:44:18;5.10;99.90
8537;DHT22;4306;50.210;10.628;2024-01-06T13:46:45;5.00;99.90
8537;DHT22;4306;50.210;10.628;2024-01-06T13:49:14;4.90;99.90
8537;DHT22;4306;50.210;10.628;2024-01-06T13:51:41;4.90;99.90
8537;DHT22;4306;50.210;10.628;2024-01-06T13:54:08;4.90;99.90
8537;DHT22;4306;50.210;10.628;2024-01-06T13:56:36;4.90;99.90
8537;DHT22;4306;50.210;10.628;2024-01-06T13:59:03;4.80;99.90
8537;DHT22;4306;50.210;10.628;2024-01-06T14:01:32;4.80;99.90
8537;DHT22;4306;50.210;10.628;2024-01-06T14:03:59;4.80;99.90
8537;DHT22;4306;50.210;10.628;2024-01-06T14:06:26;4.80;99.90
8537;DHT22;4306;50.210;10.628;2024-01-06T14:08:55;4.90;99.90
8537;DHT22;4306;50.210;10.628;2024-01-06T14:11:22;4.80;99.90
8537;DHT22;4306;50.210;10.628;2024-01-06T14:13:51;4.80;99.90
8537;DHT22;4306;50.210;10.628;2024-01-06T14:16:18;4.80;99.90
8537;DHT22;4306;50.210;10.628;2024-01-06T14:18:47;4.90;99.90
8537;DHT22;4306;50.210;10.628;2024-01-06T14:21:14;4.90;99.90
8537;DHT22;4306;50.210;10.628;2024-01-06T14:23:44;4.90;99.90
8537;DHT22;4306;50.210;10.628;2024-01-06T14:26:13;4.70;99.90
8537;DHT22;4306;50.210;10.628;2024-01-06T14:28:40;4.80;99.90
8537;DHT22;4306;50.210;10.628;2024-01-06T14:31:07;4.80;99.90
8537;DHT22;4306;50.210;10.628;2024-01-06T14:33:35;4.90;99.90
8537;DHT22;4306;50.210;10.628;2024-01-06T14:36:04;4.80;99.90
8537;DHT22;4306;50.210;10.628;2024-01-06T14:38:32;4.80;99.90
8537;DHT22;4306;50.210;10.628;2024-01-06T14:40:59;4.70;99.90
8537;DHT22;4306;50.210;10.628;2024-01-06T14:43:26;4.80;99.90
8537;DHT22;4306;50.210;10.628;2024-01-06T14:45:53;4.90;99.90
8537;DHT22;4306;50.210;10.628;2024-01-06T14:48:20;4.80;99.90
8537;DHT22;4306;50.210;10.628;2024-01-06T14:50:47;4.70;99.90
8537;DHT22;4306;50.210;10.628;2024-01-06T14:53:17;4.60;99.90
8537;DHT22;4306;50.210;10.628;2024-01-06T14:55:44;4.60;99.90
8537;DHT22;4306;50.210;10.628;2024-01-06T14:58:11;4.50;99.90
8537;DHT22;4306;50.210;10.628;2024-01-06T15:00:38;4.60;99.90
8537;DHT22;4306;50.210;10.628;2024-01-06T15:03:05;4.50;99.90
8537;DHT22;4306;50.210;10.628;2024-01-06T15:05:32;4.50;99.90
8537;DHT22;4306;50.210;10.628;2024-01-06T15:07:59;4.50;99.90
8537;DHT22;4306;50.210;10.628;2024-01-06T15:10:28;4.60;99.90
8537;DHT22;4306;50.210;10.628;2024-01-06T15:12:55;4.60;99.90
8537;DHT22;4306;50.210;10.628;2024-01-06T15:15:22;4.60;99.90
8537;DHT22;4306;50.210;10.628;2024-01-06T15:17:49;4.60;99.90
8537;DHT22;4306;50.210;10.628;2024-01-06T15:20:16;4.70;99.90
8537;DHT22;4306;50.210;10.628;2024-01-06T15:22:43;4.70;99.90
8537;DHT22;4306;50.210;10.628;2024-01-06T15:25:10;4.70;99.90
8537;DHT22;4306;50.210;10.628;2024-01-06T15:27:38;4.70;99.90
8537;DHT22;4306;50.210;10.628;2024-01-06T15:30:06;4.70;99.90
8537;DHT22;4306;50.210;10.628;2024-01-06T15:32:34;4.70;99.90
8537;DHT22;4306;50.210;10.628;2024-01-06T15:35:02;4.70;99.90
8537;DHT22;4306;50.210;10.628;2024-01-06T15:37:30;4.70;99.90
8537;DHT22;4306;50.210;10.628;2024-01-06T15:39:57;4.60;99.90
8537;DHT22;4306;50.210;10.628;2024-01-06T15:42:25;4.70;99.90
8537;DHT22;4306;50.210;10.628;2024-01-06T15:44:53;4.60;99.90
8537;DHT22;4306;50.210;10.628;2024-01-06T15:47:21;4.60;99.90
8537;DHT22;4306;50.210;10.628;2024-01-06T15:49:49;4.70;99.90
8537;DHT22;4306;50.210;10.628;2024-01-06T15:52:16;4.70;99.90
8537;DHT22;4306;50.210;10.628;2024-01-06T15:54:47;4.70;99.90
8537;DHT22;4306;50.210;10.628;2024-01-06T15:57:15;4.70;99.90
8537;DHT22;4306;50.210;10.628;2024-01-06T15:59:42;4.70;99.90
8537;DHT22;4306;50.210;10.628;2024-01-06T16:02:10;4.60;99.90
8537;DHT22;4306;50.210;10.628;2024-01-06T16:04:38;4.50;99.90
8537;DHT22;4306;50.210;10.628;2024-01-06T16:07:05;4.40;99.90